Nagpur, India

7:38 PM IST on September 02, 2015 (GMT +0530)
Nagpur | | Change Station
CLOSE
Current Station
Airport
Location: Nagpur Sonegaon,
Elevation: 1017 ft
Nearby Weather Stations

Elev 1017 ft 21.09 °N, 79.06 °E | Updated 28 minutes ago

Haze
Haze
86 °F
Feels Like 93 °F
N
4
Wind Variable Wind from West

Today
High -- | Low -- °F
--% Chance of Precip.
Yesterday
High -- | Low -- °F
Precip. -- in
5:57 AM 6:29 PM
Waning Gibbous, 80% visible
Pressure 29.71 in
Visibility 3.1 miles
Clouds Few 2000 ft
Heat Index 93 °F
Dew Point 73 °F
Humidity 66%
Rainfall 0.00 in
Snow Depth Not available.
UV 0 out of 12
Pollen Not available.
Air Quality Not available.
Flu Activity Not available.
METAR VANP 021340Z 28003KT 5000 HZ FEW020 30/23 Q1006 NOSIG
Pressure 29.71 in
Visibility 3.1 miles
Clouds Few 2000 ft
Heat Index 93 °F
Dew Point 73 °F
Humidity 66%
Rainfall 0.00 in
Snow Depth Not available.
UV 0 out of 12
Pollen Not available.
Air Quality Not available.
Flu Activity Not available.
METAR VANP 021340Z 28003KT 5000 HZ FEW020 30/23 Q1006 NOSIG

10-Day Weather Forecast

×

Almanac

Astronomy

Sep. 02, 2015 Rise Set
Actual Time
Civil Twilight
Nautical Twilight
Astronomical Twilight
Moon
Length of Visible Light
Length of Day
Tomorrow will be .
, % of the Moon is Illuminated

Today's Extremes

Country Highs Country Lows

Community

WunderPhotos

Upload Photos

1,851,759 photos uploaded!

WunderBlogs® & News

Nearby

Air Quality

  Air Quality AQ Index Pollutant
Not available.

Snow Depth

Station Depth Elevation

Earthquake Activity

City Distance Mag. Time & Date
Minimum magnitude displayed is 2.5.

Coastal Water Temperatures

Place Temperature

Stations

Nearby Weather Stations

Station Location Temp. Windchill Dew Point Humidity Wind Precip. Elev Updated Type